Time;durP1;ratioP1;P1;durP2;ratioP2;P2;SDS_P1;SDS_P2;PMS_P1;PMS_P2;Temp;Humidity;BMP_temperature;BMP_pressure;BME280_temperature;BME280_humidity;BME280_pressure;Samples;Min_cycle;Max_cycle;Signal;HPM_P1;HPM_P2
2024/01/12 04:59:57;;;;;;;12.65;6.18;;;;;;;-2.52;100.00;68212.56;5605617;28;20119;-83
2024/01/12 05:03:01;;;;;;;15.30;8.05;;;;;;;-2.39;100.00;68226.94;5277404;33;33944;-83
2024/01/12 05:06:04;;;;;;;17.58;8.45;;;;;;;-2.31;100.00;68239.31;5277315;33;33816;-84
2024/01/12 05:09:08;;;;;;;12.85;6.78;;;;;;;-2.22;100.00;68251.09;5288962;33;33640;-83
2024/01/12 05:12:11;;;;;;;16.90;7.68;;;;;;;-2.22;100.00;68251.69;5289233;33;33803;-84
2024/01/12 05:15:14;;;;;;;15.55;6.57;;;;;;;-2.22;100.00;68249.06;5301605;33;34311;-84
2024/01/12 05:18:17;;;;;;;15.90;8.15;;;;;;;-2.17;100.00;68252.19;5302989;33;35320;-84
2024/01/12 05:21:20;;;;;;;13.62;6.80;;;;;;;-2.16;100.00;68260.63;5294073;33;33977;-84
2024/01/12 05:24:23;;;;;;;11.48;6.30;;;;;;;-2.24;100.00;68252.00;5277465;33;34436;-84
2024/01/12 05:27:28;;;;;;;12.13;6.72;;;;;;;-2.12;100.00;68262.59;5288598;33;34436;-84
2024/01/12 05:30:31;;;;;;;15.63;7.45;;;;;;;-2.26;100.00;68244.47;5276229;33;34433;-83
2024/01/12 05:33:34;;;;;;;13.02;7.50;;;;;;;-2.34;100.00;68237.88;5264850;33;33540;-83
2024/01/12 05:36:37;;;;;;;13.95;6.78;;;;;;;-2.35;100.00;68234.69;5282260;33;33461;-83
2024/01/12 05:39:41;;;;;;;9.95;5.30;;;;;;;-2.35;100.00;68234.13;5281058;33;33164;-83
2024/01/12 05:42:44;;;;;;;12.98;6.47;;;;;;;-2.35;100.00;68234.69;5281417;33;33785;-83
2024/01/12 05:45:47;;;;;;;13.23;7.00;;;;;;;-2.35;100.00;68232.06;5279761;33;33692;-83
2024/01/12 05:48:50;;;;;;;11.82;5.60;;;;;;;-2.40;100.00;68231.00;5266665;33;33403;-83
2024/01/12 05:51:53;;;;;;;11.15;5.35;;;;;;;-2.46;100.00;68221.47;5290331;33;34950;-83
2024/01/12 05:54:57;;;;;;;10.60;5.37;;;;;;;-2.42;100.00;68226.66;5277988;33;33651;-83
2024/01/12 05:58:00;;;;;;;10.50;5.97;;;;;;;-2.51;100.00;68216.91;5278070;33;34519;-83
2024/01/12 06:01:03;;;;;;;10.60;6.10;;;;;;;-2.56;100.00;68207.97;5268369;33;34217;-83
2024/01/12 06:04:06;;;;;;;10.55;5.35;;;;;;;-2.55;100.00;68212.28;5274585;33;33550;-83
2024/01/12 06:07:09;;;;;;;15.07;5.47;;;;;;;-2.49;100.00;68218.03;5268683;33;34680;-83
2024/01/12 06:10:12;;;;;;;7.07;4.12;;;;;;;-2.59;100.00;68209.75;5290916;33;34411;-83
2024/01/12 06:13:15;;;;;;;10.93;5.25;;;;;;;-2.55;100.00;68214.91;5286814;33;33499;-83
2024/01/12 06:16:18;;;;;;;9.40;5.47;;;;;;;-2.67;100.00;68195.34;5279711;33;33985;-83
2024/01/12 06:19:24;;;;;;;10.60;5.37;;;;;;;-2.68;100.00;68197.38;5287323;33;34843;-83
2024/01/12 06:22:28;;;;;;;8.75;5.00;;;;;;;-2.61;100.00;68207.44;5294253;33;33430;-83
2024/01/12 06:25:36;;;;;;;10.32;5.57;;;;;;;-2.63;100.00;68203.13;5271563;33;33508;-83
2024/01/12 06:28:39;;;;;;;7.60;4.32;;;;;;;-2.70;100.00;68197.13;5278633;33;34563;-82
2024/01/12 06:31:42;;;;;;;8.55;4.72;;;;;;;-2.63;100.00;68203.13;5287574;33;33504;-83
2024/01/12 06:34:45;;;;;;;7.95;5.15;;;;;;;-2.64;100.00;68201.38;5274631;33;34265;-87
2024/01/12 06:37:48;;;;;;;11.18;5.70;;;;;;;-2.67;100.00;68195.34;5298176;33;34090;-88
2024/01/12 06:40:51;;;;;;;10.25;5.70;;;;;;;-2.70;100.00;68197.69;5289553;33;33684;-87
2024/01/12 06:43:54;;;;;;;10.27;6.03;;;;;;;-2.74;100.00;68245.94;5276253;33;35233;-87
2024/01/12 06:46:57;;;;;;;8.20;5.35;;;;;;;-2.80;100.00;68181.56;5276393;33;33369;-83
2024/01/12 06:50:01;;;;;;;8.43;4.95;;;;;;;-2.89;100.00;68171.22;5275471;33;34476;-83
2024/01/12 06:53:08;;;;;;;8.73;5.30;;;;;;;-2.91;100.00;68170.97;5276263;33;33955;-83
2024/01/12 06:56:19;;;;;;;9.27;5.62;;;;;;;-2.78;100.00;68186.47;5280758;33;33388;-83
2024/01/12 06:59:22;;;;;;;13.48;5.70;;;;;;;-2.80;100.00;68184.16;5276022;33;33832;-83
2024/01/12 07:02:25;;;;;;;9.07;5.53;;;;;;;-2.79;100.00;68185.31;5275987;33;33800;-83
2024/01/12 07:05:29;;;;;;;8.20;5.35;;;;;;;-2.65;100.00;68203.44;5275772;33;33419;-83
2024/01/12 07:08:31;;;;;;;7.05;5.10;;;;;;;-2.76;100.00;68191.38;5260404;33;33688;-83
2024/01/12 07:11:39;;;;;;;6.20;4.85;;;;;;;-2.67;100.00;68195.91;5273108;33;33844;-82
2024/01/12 07:14:42;;;;;;;11.52;5.47;;;;;;;-2.60;100.00;68206.00;5284592;33;35187;-83
2024/01/12 07:17:47;;;;;;;7.68;4.65;;;;;;;-2.64;100.00;68198.78;5282536;33;33838;-83
2024/01/12 07:20:50;;;;;;;9.73;5.18;;;;;;;-2.65;100.00;68206.03;5282373;33;33285;-83
2024/01/12 07:23:54;;;;;;;7.75;4.57;;;;;;;-2.66;100.00;68199.69;5270136;33;34605;-82
2024/01/12 07:26:57;;;;;;;13.65;5.72;;;;;;;-2.70;100.00;68197.69;5277350;33;34599;-83
2024/01/12 07:30:00;;;;;;;10.07;5.47;;;;;;;-2.63;100.00;68260.63;5288263;33;34394;-82
2024/01/12 07:33:04;;;;;;;10.70;6.22;;;;;;;-2.64;100.00;68201.38;5285563;33;33676;-82
2024/01/12 07:36:08;;;;;;;12.98;5.72;;;;;;;-2.69;100.00;68196.22;5277552;33;33635;-83
2024/01/12 07:39:12;;;;;;;12.80;4.60;;;;;;;-2.71;100.00;68196.53;5301519;33;33509;-83
2024/01/12 07:42:15;;;;;;;10.38;5.80;;;;;;;-2.65;100.00;68198.19;5290119;33;33759;-83
2024/01/12 07:45:18;;;;;;;10.50;6.15;;;;;;;-2.64;100.00;68207.19;5264873;33;32482;-83
2024/01/12 07:48:21;;;;;;;10.23;5.72;;;;;;;-2.61;100.00;68205.41;5266245;33;33674;-83
2024/01/12 07:51:24;;;;;;;14.90;6.35;;;;;;;-2.54;100.00;68210.84;5280597;33;33765;-82
2024/01/12 07:54:27;;;;;;;12.20;5.82;;;;;;;-2.34;100.00;68235.84;5267660;33;33714;-83
2024/01/12 07:57:30;;;;;;;15.77;6.43;;;;;;;-2.10;100.00;68259.66;5271455;33;34083;-83
2024/01/12 08:00:33;;;;;;;10.85;5.40;;;;;;;-2.01;100.00;68270.00;5278921;33;33931;-83
2024/01/12 08:03:36;;;;;;;18.75;6.07;;;;;;;-1.98;100.00;68275.50;5290351;33;34384;-83
2024/01/12 08:06:39;;;;;;;9.85;6.28;;;;;;;-1.95;100.00;68278.94;5289926;33;33887;-83
2024/01/12 08:09:42;;;;;;;8.65;5.72;;;;;;;-1.81;100.00;68295.03;5282248;33;33834;-83
2024/01/12 08:12:45;;;;;;;11.60;6.20;;;;;;;-1.64;100.00;68316.59;5296796;33;33832;-83
2024/01/12 08:15:48;;;;;;;14.38;7.43;;;;;;;-1.41;100.00;68342.47;5281236;33;33723;-83
2024/01/12 08:18:51;;;;;;;17.55;7.30;;;;;;;-1.23;100.00;68357.94;5280309;33;33586;-83
2024/01/12 08:21:55;;;;;;;10.30;5.85;;;;;;;-1.08;100.00;68377.25;5279336;33;33575;-83
2024/01/12 08:25:00;;;;;;;17.12;7.47;;;;;;;-0.84;100.00;68406.88;5291210;33;33800;-83
2024/01/12 08:28:05;;;;;;;11.43;6.82;;;;;;;-0.82;100.00;68409.19;5291018;33;34113;-83
2024/01/12 08:31:10;;;;;;;13.65;7.05;;;;;;;-0.58;100.00;68433.03;5277321;33;33582;-82
2024/01/12 08:34:13;;;;;;;15.73;6.47;;;;;;;-0.52;100.00;68440.50;5277671;33;33267;-82
2024/01/12 08:37:16;;;;;;;9.88;6.32;;;;;;;-0.60;100.00;68431.28;5290622;33;34842;-82
2024/01/12 08:40:23;;;;;;;14.02;7.07;;;;;;;-0.47;100.00;68448.28;5290226;33;35308;-86
2024/01/12 08:43:26;;;;;;;14.68;6.97;;;;;;;-0.38;100.00;68452.81;5265302;33;33415;-88
2024/01/12 08:46:31;;;;;;;14.98;6.53;;;;;;;-0.23;100.00;68472.72;5266335;33;33789;-83
2024/01/12 08:49:34;;;;;;;17.60;6.68;;;;;;;-0.18;100.00;68478.47;5277690;33;33277;-82
2024/01/12 08:52:37;;;;;;;15.35;7.25;;;;;;;-0.24;100.00;68469.50;5266044;33;33506;-84
2024/01/12 08:55:40;;;;;;;15.93;7.37;;;;;;;-0.19;100.00;68474.13;5277281;33;34625;-84
2024/01/12 08:58:43;;;;;;;16.73;8.18;;;;;;;-0.05;100.00;68493.44;5254272;33;33822;-83
2024/01/12 09:01:46;;;;;;;18.27;7.93;;;;;;;0.09;100.00;68511.63;5251375;33;32363;-83
2024/01/12 09:04:49;;;;;;;14.52;7.37;;;;;;;0.26;100.00;68527.97;5285344;33;33775;-82
2024/01/12 09:07:52;;;;;;;13.00;6.68;;;;;;;0.32;100.00;68539.56;5290390;33;33721;-82
2024/01/12 09:10:55;;;;;;;18.35;7.97;;;;;;;0.43;100.00;68544.94;5268628;33;34060;-83
2024/01/12 09:13:58;;;;;;;17.52;7.47;;;;;;;0.50;100.00;68555.06;5272718;33;33238;-84
2024/01/12 09:17:01;;;;;;;15.82;7.45;;;;;;;0.59;100.00;68565.44;5260012;33;33515;-83
2024/01/12 09:20:05;;;;;;;12.90;7.15;;;;;;;0.67;100.00;68572.03;5261547;33;33760;-82
2024/01/12 09:23:08;;;;;;;16.48;6.55;;;;;;;0.85;100.00;68594.22;5289694;33;34100;-82
2024/01/12 09:26:12;;;;;;;17.33;7.93;;;;;;;0.95;100.00;68603.13;5276792;33;33793;-83
2024/01/12 09:29:15;;;;;;;16.95;7.87;;;;;;;1.06;100.00;68621.06;5280018;33;33401;-83
2024/01/12 09:32:18;;;;;;;15.45;7.35;;;;;;;1.17;100.00;68629.94;5274525;33;33872;-83
2024/01/12 09:35:21;;;;;;;9.90;6.35;;;;;;;1.33;100.00;68651.03;5272490;33;33720;-83
2024/01/12 09:38:24;;;;;;;15.70;7.50;;;;;;;1.17;100.00;68635.78;5281672;33;33876;-83
2024/01/12 09:41:58;;;;;;;17.67;6.05;;;;;;;1.40;99.37;68656.44;5286588;33;34694;-83
2024/01/12 09:45:01;;;;;;;14.23;7.43;;;;;;;1.75;96.93;68695.66;5288604;33;33648;-83
2024/01/12 09:48:12;;;;;;;14.30;7.35;;;;;;;1.86;94.75;68707.78;5287660;33;33877;-83
2024/01/12 09:51:18;;;;;;;16.77;7.25;;;;;;;1.95;92.65;68718.72;5288893;33;34159;-83
2024/01/12 09:54:22;;;;;;;14.10;6.32;;;;;;;2.08;91.59;68732.56;5288401;33;34759;-83
2024/01/12 09:57:26;;;;;;;18.80;7.45;;;;;;;1.72;93.10;68694.84;5297710;33;35065;-83
2024/01/12 10:00:34;;;;;;;12.25;6.12;;;;;;;1.34;94.54;68652.16;5275760;33;34022;-83
2024/01/12 10:03:39;;;;;;;13.95;6.57;;;;;;;1.24;97.54;68643.84;5271734;33;33684;-82
2024/01/12 10:06:42;;;;;;;16.17;6.95;;;;;;;1.23;96.40;68634.22;5266876;33;33731;-83
2024/01/12 10:09:45;;;;;;;14.30;6.43;;;;;;;1.47;93.37;68667.16;5250920;33;33428;-83
2024/01/12 10:12:49;;;;;;;13.20;7.20;;;;;;;1.48;92.41;68723.00;5255216;33;33464;-83
2024/01/12 10:15:52;;;;;;;17.23;7.10;;;;;;;1.50;91.88;68670.63;5257928;33;34517;-82
2024/01/12 10:18:59;;;;;;;15.55;7.03;;;;;;;1.63;90.89;68681.81;5245005;33;33733;-86
2024/01/12 10:22:03;;;;;;;15.95;6.15;;;;;;;1.57;89.70;68676.06;5270071;33;33411;-87
2024/01/12 10:25:07;;;;;;;14.38;7.00;;;;;;;1.49;92.45;68669.47;5257202;33;33989;-88
2024/01/12 10:28:17;;;;;;;14.63;6.53;;;;;;;1.68;90.89;68745.53;5257657;33;33668;-84
2024/01/12 10:31:20;;;;;;;16.67;7.18;;;;;;;1.86;88.78;68713.03;5256430;33;33705;-84
2024/01/12 10:34:24;;;;;;;11.02;6.93;;;;;;;1.83;88.25;68706.94;5255998;33;33756;-83
2024/01/12 10:37:28;;;;;;;13.52;7.22;;;;;;;1.77;87.58;68700.59;5256890;33;34830;-83
2024/01/12 10:40:32;;;;;;;13.00;6.80;;;;;;;1.78;89.28;68697.06;5246185;33;33249;-83
2024/01/12 10:43:38;;;;;;;13.82;6.60;;;;;;;1.84;88.06;68708.66;5254740;33;32552;-84
2024/01/12 10:46:47;;;;;;;12.10;6.40;;;;;;;1.91;86.93;68771.50;5270349;33;34626;-83
2024/01/12 10:49:57;;;;;;;14.57;6.57;;;;;;;1.71;88.32;68691.63;5257480;33;34801;-83
2024/01/12 10:53:42;;;;;;;12.40;5.93;;;;;;;1.66;88.45;68690.56;5268210;33;33381;-83
2024/01/12 10:56:45;;;;;;;14.87;6.53;;;;;;;1.68;88.46;68690.22;5190241;33;33831;-83
2024/01/12 10:59:49;;;;;;;15.75;7.05;;;;;;;1.66;87.99;68690.56;5275285;33;33300;-83
2024/01/12 11:02:54;;;;;;;12.32;6.37;;;;;;;1.92;87.83;68772.63;5279105;33;33393;-83
2024/01/12 11:05:59;;;;;;;14.65;7.50;;;;;;;2.25;85.96;68752.19;5290854;33;33810;-83
2024/01/12 11:09:04;;;;;;;12.30;5.68;;;;;;;2.68;82.39;68806.50;5288535;33;35393;-83
2024/01/12 11:12:09;;;;;;;12.70;6.20;;;;;;;2.63;80.14;68795.47;5270789;33;33342;-83
2024/01/12 11:15:13;;;;;;;11.73;6.40;;;;;;;2.73;80.30;68809.63;5275415;33;33531;-83
2024/01/12 11:18:17;;;;;;;15.32;6.72;;;;;;;2.73;79.40;68806.44;5274991;33;33869;-83
2024/01/12 11:21:24;;;;;;;11.00;5.65;;;;;;;2.64;79.70;68799.25;5290406;33;33721;-83
2024/01/12 11:24:29;;;;;;;13.48;6.00;;;;;;;2.68;79.71;68805.91;5285291;33;34680;-83
2024/01/12 11:27:40;;;;;;;12.13;6.05;;;;;;;2.48;80.72;68783.97;5281396;33;33348;-83
2024/01/12 11:30:43;;;;;;;18.48;6.72;;;;;;;2.39;82.34;68770.41;5285221;33;34092;-87
2024/01/12 11:33:46;;;;;;;15.65;6.53;;;;;;;2.46;82.09;68831.78;5268055;33;33440;-87
2024/01/12 11:37:00;;;;;;;14.30;5.93;;;;;;;2.46;80.92;68775.84;5267531;33;33406;-88
2024/01/12 11:40:07;;;;;;;14.35;7.15;;;;;;;2.51;80.85;68839.59;5261665;33;34951;-84
2024/01/12 11:43:17;;;;;;;11.12;5.50;;;;;;;2.41;82.82;68777.97;5279051;33;34448;-83
2024/01/12 11:46:21;;;;;;;13.27;6.70;;;;;;;2.43;82.58;68772.97;5262654;33;33770;-83
2024/01/12 11:49:24;;;;;;;13.80;7.05;;;;;;;2.45;81.89;68775.25;5276970;33;33376;-83
2024/01/12 11:52:28;;;;;;;11.45;5.78;;;;;;;2.47;82.55;68780.19;5267322;33;33433;-83
2024/01/12 11:55:32;;;;;;;12.73;5.70;;;;;;;2.62;79.63;68796.94;5273818;33;33277;-83
2024/01/12 11:58:37;;;;;;;12.80;6.15;;;;;;;2.52;81.05;68782.19;5277152;33;34924;-83
2024/01/12 12:01:40;;;;;;;16.65;5.70;;;;;;;2.83;79.97;68820.59;5290715;33;34481;-83
2024/01/12 12:04:43;;;;;;;13.15;6.05;;;;;;;2.49;80.14;68779.31;5274069;33;33793;-83
2024/01/12 12:07:46;;;;;;;12.23;5.62;;;;;;;2.57;80.11;68790.59;5273377;33;33943;-83
2024/01/12 12:10:49;;;;;;;11.63;5.97;;;;;;;2.58;80.15;68791.75;5276064;33;33645;-82
2024/01/12 12:13:53;;;;;;;13.15;6.37;;;;;;;2.42;81.57;68771.78;5271805;33;33544;-82
2024/01/12 12:16:56;;;;;;;14.23;6.72;;;;;;;2.15;82.30;68745.91;5290296;33;34897;-83
2024/01/12 12:19:59;;;;;;;11.40;6.15;;;;;;;1.96;83.75;68719.28;5301019;33;35349;-82
2024/01/12 12:23:03;;;;;;;12.23;6.15;;;;;;;2.07;83.82;68731.41;5281160;33;34740;-83
2024/01/12 12:26:08;;;;;;;10.85;6.15;;;;;;;2.10;84.98;68737.50;5267927;33;32457;-83
2024/01/12 12:29:11;;;;;;;10.50;6.10;;;;;;;2.09;84.38;68736.38;5265717;33;33545;-83
2024/01/12 12:32:14;;;;;;;14.30;6.62;;;;;;;2.16;83.17;68742.38;5270567;33;34068;-83
2024/01/12 12:35:19;;;;;;;13.20;5.75;;;;;;;2.35;82.62;68763.72;5273016;33;33937;-83
2024/01/12 12:38:23;;;;;;;12.55;6.78;;;;;;;2.50;81.55;68781.03;5275578;33;33687;-83
2024/01/12 12:41:26;;;;;;;13.75;6.65;;;;;;;2.64;81.31;68798.69;5265088;33;33325;-83
2024/01/12 12:44:32;;;;;;;13.45;7.00;;;;;;;2.68;80.04;68803.84;5283823;33;34804;-84
2024/01/12 12:47:37;;;;;;;14.73;6.78;;;;;;;2.67;81.17;68799.50;5288519;33;34946;-83
2024/01/12 12:50:42;;;;;;;13.20;6.65;;;;;;;2.81;80.51;68817.72;5266617;33;33783;-83
2024/01/12 12:53:45;;;;;;;15.25;6.45;;;;;;;2.67;80.08;68800.06;5264923;33;33374;-83
2024/01/12 12:56:49;;;;;;;12.80;5.68;;;;;;;2.89;78.87;68826.94;5265523;33;33699;-83
2024/01/12 12:59:52;;;;;;;11.00;5.30;;;;;;;2.73;78.37;68809.06;5279342;33;33431;-83
2024/01/12 13:02:56;;;;;;;11.93;5.65;;;;;;;2.72;78.68;68863.88;5274425;33;33691;-83
2024/01/12 13:06:00;;;;;;;11.10;6.12;;;;;;;2.92;76.88;68830.41;5252862;33;33694;-83
2024/01/12 13:09:06;;;;;;;15.95;6.40;;;;;;;2.94;77.05;68833.28;5262656;33;33710;-83
2024/01/12 13:12:09;;;;;;;14.52;5.90;;;;;;;2.94;77.13;68832.72;5272050;33;33774;-83
2024/01/12 13:15:13;;;;;;;12.07;5.40;;;;;;;2.97;75.41;68832.97;5278220;33;35289;-83
2024/01/12 13:18:16;;;;;;;7.65;4.82;;;;;;;2.87;74.77;68825.22;5273426;33;33736;-84
2024/01/12 13:21:20;;;;;;;15.02;5.50;;;;;;;2.63;74.67;68794.88;5275595;33;33709;-88
2024/01/12 13:24:24;;;;;;;11.23;4.97;;;;;;;2.57;75.26;68787.94;5259356;33;33677;-88
2024/01/12 13:27:27;;;;;;;11.00;4.87;;;;;;;2.63;74.97;68794.88;5280444;33;33745;-88
2024/01/12 13:30:30;;;;;;;12.18;5.15;;;;;;;2.58;76.18;68791.75;5278212;33;33929;-83
2024/01/12 13:33:33;;;;;;;13.13;5.93;;;;;;;2.65;74.94;68799.81;5261584;33;33588;-83
2024/01/12 13:36:36;;;;;;;9.57;5.10;;;;;;;2.82;74.45;68818.88;5262544;33;34806;-83
2024/01/12 13:39:39;;;;;;;8.95;5.25;;;;;;;2.95;73.44;68831.81;5275133;33;33402;-83
2024/01/12 13:42:44;;;;;;;8.88;4.90;;;;;;;2.90;71.38;68828.13;5288040;33;34591;-82
2024/01/12 13:45:48;;;;;;;16.55;5.22;;;;;;;2.84;72.06;68819.13;5272270;33;32623;-84
2024/01/12 13:48:52;;;;;;;12.73;5.30;;;;;;;2.85;71.21;68822.91;5266660;33;34452;-83
2024/01/12 13:51:55;;;;;;;14.93;5.25;;;;;;;2.93;71.55;68829.50;5265693;33;33368;-84
2024/01/12 13:54:59;;;;;;;10.45;5.10;;;;;;;3.01;71.45;68840.78;5276139;33;33711;-83
2024/01/12 13:58:03;;;;;;;7.28;5.00;;;;;;;2.97;70.61;68838.25;5277323;33;33220;-83
2024/01/12 14:01:09;;;;;;;10.80;5.07;;;;;;;2.98;69.95;68839.97;5288317;33;33595;-83
2024/01/12 14:04:16;;;;;;;8.77;4.50;;;;;;;2.97;69.34;68835.63;5280275;33;33695;-83
2024/01/12 14:07:19;;;;;;;9.93;5.32;;;;;;;2.86;70.47;68823.47;5285580;33;34514;-83
2024/01/12 14:10:22;;;;;;;11.12;4.65;;;;;;;2.71;71.28;68859.50;5257961;33;33818;-83
2024/01/12 14:13:25;;;;;;;9.27;4.68;;;;;;;2.76;73.14;68817.81;5278394;33;33820;-83
2024/01/12 14:16:29;;;;;;;13.27;5.93;;;;;;;2.65;70.70;68800.41;5266424;33;33788;-83
2024/01/12 14:19:32;;;;;;;9.48;4.90;;;;;;;2.54;72.49;68792.41;5264425;33;33812;-82
2024/01/12 14:22:35;;;;;;;10.25;5.07;;;;;;;2.42;73.25;68773.84;5273529;33;34703;-83
2024/01/12 14:25:38;;;;;;;9.70;5.15;;;;;;;2.33;72.73;68766.69;5266385;33;34598;-82
2024/01/12 14:28:41;;;;;;;13.20;5.57;;;;;;;2.10;74.36;68738.09;5276475;33;33828;-83
2024/01/12 14:31:44;;;;;;;9.82;4.90;;;;;;;1.83;76.03;68706.94;5261695;33;33790;-83
2024/01/12 14:34:50;;;;;;;10.65;4.95;;;;;;;1.77;76.63;68700.59;5269108;33;34292;-83
2024/01/12 14:37:53;;;;;;;8.88;5.07;;;;;;;1.68;76.91;68684.97;5280322;33;33944;-83
2024/01/12 14:40:56;;;;;;;8.45;4.28;;;;;;;1.59;78.61;68677.78;5280335;33;33652;-83
2024/01/12 14:43:59;;;;;;;14.07;5.32;;;;;;;1.39;79.65;68660.56;5289927;33;34484;-83
2024/01/12 14:47:02;;;;;;;10.73;4.97;;;;;;;1.37;80.58;68653.00;5279731;33;34551;-83
2024/01/12 14:50:05;;;;;;;9.73;5.18;;;;;;;1.34;80.75;68652.16;5273930;33;33416;-83
2024/01/12 14:53:09;;;;;;;12.52;5.18;;;;;;;1.26;80.66;68640.91;5286311;33;32571;-84
2024/01/12 14:56:12;;;;;;;10.30;4.68;;;;;;;1.09;81.93;68621.88;5273662;33;33510;-84
2024/01/12 14:59:16;;;;;;;7.37;4.50;;;;;;;1.09;83.09;68621.31;5261448;33;33856;-83
2024/01/12 15:02:19;;;;;;;10.38;4.55;;;;;;;0.92;82.87;68601.72;5299018;33;33694;-84
2024/01/12 15:05:23;;;;;;;10.07;5.20;;;;;;;0.89;83.34;68599.41;5277113;33;33939;-83
2024/01/12 15:08:26;;;;;;;8.52;5.35;;;;;;;0.75;83.04;68585.34;5276627;33;33364;-83
2024/01/12 15:11:29;;;;;;;8.07;4.30;;;;;;;0.63;84.64;68569.44;5248230;33;33317;-83
2024/01/12 15:14:32;;;;;;;12.75;5.65;;;;;;;0.63;84.60;68570.03;5283059;33;33836;-84
2024/01/12 15:17:35;;;;;;;11.12;5.10;;;;;;;0.59;85.74;68564.84;5285130;33;34212;-84
2024/01/12 15:20:39;;;;;;;16.77;5.60;;;;;;;0.60;84.35;68568.63;5274396;33;33660;-83
2024/01/12 15:23:42;;;;;;;9.85;4.32;;;;;;;0.56;84.15;68561.97;5280929;33;33698;-83
2024/01/12 15:26:46;;;;;;;8.63;4.93;;;;;;;0.55;85.63;68560.22;5269445;33;33781;-84
2024/01/12 15:29:49;;;;;;;8.40;4.68;;;;;;;0.45;85.24;68547.25;5276684;33;151519;-88
2024/01/12 15:32:53;;;;;;;8.27;4.55;;;;;;;0.43;85.29;68549.63;5265853;33;33725;-84
2024/01/12 15:35:57;;;;;;;8.57;4.45;;;;;;;0.41;86.16;68544.69;5276902;33;33738;-84
2024/01/12 15:39:00;;;;;;;8.07;4.82;;;;;;;0.38;88.24;68544.44;5277110;33;33654;-84
2024/01/12 15:42:03;;;;;;;9.57;4.95;;;;;;;0.28;87.85;68529.72;5276375;33;33375;-84
2024/01/12 15:45:08;;;;;;;13.62;4.80;;;;;;;0.26;87.50;68530.59;5276697;33;33755;-84
2024/01/12 15:48:12;;;;;;;10.30;5.47;;;;;;;0.19;88.61;68519.94;5289393;33;33756;-84
2024/01/12 15:51:15;;;;;;;10.43;5.43;;;;;;;0.17;89.12;68520.81;5272876;33;34860;-84
2024/01/12 15:54:19;;;;;;;10.95;5.07;;;;;;;0.15;89.54;68518.53;5276546;33;33988;-84
2024/01/12 15:57:22;;;;;;;12.70;5.75;;;;;;;0.04;89.51;68505.88;5276534;33;33657;-83
2024/01/12 16:00:27;;;;;;;11.88;5.40;;;;;;;-0.03;90.63;68495.75;5274407;33;33705;-84
2024/01/12 16:03:30;;;;;;;7.95;4.97;;;;;;;-0.03;90.08;68495.75;5272694;33;33781;-83
2024/01/12 16:06:33;;;;;;;9.05;5.10;;;;;;;-0.05;91.13;68495.50;5273410;33;33804;-83
2024/01/12 16:09:37;;;;;;;9.32;4.95;;;;;;;-0.13;92.62;68483.66;5273133;33;33682;-83
2024/01/12 16:12:39;;;;;;;8.50;4.53;;;;;;;-0.03;91.33;68495.16;5272809;33;33816;-83
2024/01/12 16:15:43;;;;;;;9.70;5.65;;;;;;;0.00;92.12;68501.25;5272806;33;33674;-83
2024/01/12 16:18:46;;;;;;;10.77;4.90;;;;;;;0.03;90.89;68502.09;5259558;33;33767;-83
2024/01/12 16:22:08;;;;;;;10.75;5.25;;;;;;;-0.03;91.90;68495.16;5271916;33;33763;-83
2024/01/12 16:25:11;;;;;;;9.23;4.57;;;;;;;-0.05;91.35;68495.50;5271741;33;33752;-84
2024/01/12 16:28:14;;;;;;;13.32;5.70;;;;;;;-0.02;91.23;68552.03;5271002;33;33792;-84
2024/01/12 16:31:17;;;;;;;7.03;4.40;;;;;;;-0.03;90.76;68495.16;5270819;33;33671;-84
2024/01/12 16:34:21;;;;;;;12.37;5.07;;;;;;;-0.02;91.22;68494.28;5272969;33;34837;-84
2024/01/12 16:37:24;;;;;;;7.45;4.18;;;;;;;-0.05;90.76;68496.06;5273979;33;33747;-84
2024/01/12 16:40:27;;;;;;;13.48;5.00;;;;;;;-0.12;91.39;68487.44;5272993;33;34310;-84
2024/01/12 16:43:30;;;;;;;8.75;4.05;;;;;;;-0.20;91.84;68475.63;5273462;33;34596;-84
2024/01/12 16:46:33;;;;;;;8.45;4.65;;;;;;;-0.17;91.91;68479.06;5274694;33;33741;-84
2024/01/12 16:49:37;;;;;;;6.28;4.45;;;;;;;-0.21;91.89;68474.44;5273446;33;33650;-83
2024/01/12 16:52:41;;;;;;;8.95;4.75;;;;;;;-0.21;91.76;68475.03;5274564;33;33714;-83
